createdAt,value
2018-12-16T00:00:32.703Z,17.30
2018-12-16T00:03:00.321Z,16.53
2018-12-16T00:05:28.879Z,24.47
2018-12-16T00:07:57.436Z,19.67
2018-12-16T00:10:25.038Z,18.63
2018-12-16T00:12:53.414Z,26.43
2018-12-16T00:15:20.985Z,19.80
2018-12-16T00:17:48.549Z,25.63
2018-12-16T00:20:16.209Z,20.70
2018-12-16T00:22:43.751Z,18.97
2018-12-16T00:25:13.639Z,18.37
2018-12-16T00:27:41.212Z,18.27
2018-12-16T00:30:08.790Z,17.87
2018-12-16T00:32:37.180Z,17.67
2018-12-16T00:35:04.772Z,18.20
2018-12-16T00:37:32.675Z,17.40
2018-12-16T00:40:00.261Z,19.33
2018-12-16T00:42:28.606Z,26.63
2018-12-16T00:44:56.460Z,20.30
2018-12-16T00:47:24.080Z,19.53
2018-12-16T00:49:51.630Z,18.30
2018-12-16T00:52:19.232Z,17.47
2018-12-16T00:54:46.820Z,17.07
2018-12-16T00:57:14.805Z,18.17
2018-12-16T00:59:42.391Z,18.17
2018-12-16T01:02:10.729Z,17.00
2018-12-16T01:04:38.334Z,17.73
2018-12-16T01:07:05.915Z,18.43
2018-12-16T01:09:34.340Z,17.93
2018-12-16T01:12:01.940Z,17.60
2018-12-16T01:14:30.290Z,24.47
2018-12-16T01:16:57.917Z,19.70
2018-12-16T01:19:26.002Z,25.05
2018-12-16T01:21:53.624Z,19.83
2018-12-16T01:24:21.214Z,18.27
2018-12-16T01:26:49.096Z,18.90
2018-12-16T01:29:16.714Z,18.87
2018-12-16T01:31:45.329Z,18.00
2018-12-16T01:34:12.954Z,16.83
2018-12-16T01:36:41.308Z,18.93
2018-12-16T01:39:08.896Z,18.37
2018-12-16T01:41:36.496Z,24.77
2018-12-16T01:44:04.084Z,19.77
2018-12-16T01:46:32.073Z,19.87
2018-12-16T01:48:59.649Z,18.13
2018-12-16T01:51:27.996Z,18.97
2018-12-16T01:53:55.603Z,16.97
2018-12-16T01:56:23.179Z,18.00
2018-12-16T01:58:51.440Z,16.47
2018-12-16T02:01:19.017Z,17.40
2018-12-16T02:03:46.606Z,17.47
2018-12-16T02:06:14.236Z,17.90
2018-12-16T02:08:41.846Z,17.83
2018-12-16T02:11:09.815Z,23.43
2018-12-16T02:13:37.782Z,25.37
2018-12-16T02:16:05.363Z,26.92
2018-12-16T02:18:33.002Z,27.25
2018-12-16T02:21:00.557Z,19.87
2018-12-16T02:23:28.465Z,18.57
2018-12-16T02:25:56.395Z,21.47
2018-12-16T02:28:23.979Z,20.63
2018-12-16T02:30:51.594Z,19.40
2018-12-16T02:33:19.188Z,19.27
2018-12-16T02:35:46.870Z,19.67
2018-12-16T02:38:14.491Z,18.60
2018-12-16T02:40:42.803Z,26.00
2018-12-16T02:43:10.439Z,21.97
2018-12-16T02:45:37.997Z,19.37
2018-12-16T02:48:05.624Z,19.03
2018-12-16T02:50:33.969Z,18.83
2018-12-16T02:53:04.728Z,18.80
2018-12-16T02:55:29.165Z,19.50
2018-12-16T02:57:56.737Z,19.30
2018-12-16T03:00:24.642Z,17.13
2018-12-16T03:02:52.234Z,16.23
2018-12-16T03:05:19.825Z,16.43
2018-12-16T03:07:47.438Z,16.60
2018-12-16T03:10:15.786Z,19.40
2018-12-16T03:12:44.050Z,17.63
2018-12-16T03:15:11.623Z,25.23
2018-12-16T03:17:39.212Z,19.63
2018-12-16T03:20:06.874Z,25.83
2018-12-16T03:22:34.446Z,19.10
2018-12-16T03:25:02.062Z,19.13
2018-12-16T03:27:29.642Z,17.57
2018-12-16T03:29:58.238Z,18.47
2018-12-16T03:32:25.731Z,16.93
2018-12-16T03:34:53.314Z,17.63
2018-12-16T03:37:21.411Z,16.67
2018-12-16T03:39:48.991Z,17.80
2018-12-16T03:42:16.606Z,18.13
2018-12-16T03:44:44.942Z,17.30
2018-12-16T03:47:12.529Z,16.33
2018-12-16T03:49:40.154Z,17.23
2018-12-16T03:52:07.737Z,17.20
2018-12-16T03:54:36.093Z,24.80
2018-12-16T03:57:03.737Z,19.23
2018-12-16T03:59:31.292Z,25.20
2018-12-16T04:01:59.181Z,19.23
2018-12-16T04:04:26.766Z,17.23
2018-12-16T04:06:55.114Z,25.60
2018-12-16T04:09:22.736Z,20.30
2018-12-16T04:11:50.316Z,18.80
2018-12-16T04:14:17.894Z,17.73
2018-12-16T04:16:46.743Z,18.10
2018-12-16T04:19:14.330Z,18.13
2018-12-16T04:21:41.906Z,17.33
2018-12-16T04:24:09.992Z,18.23
2018-12-16T04:26:37.576Z,17.90
2018-12-16T04:29:05.935Z,25.53
2018-12-16T04:31:33.824Z,19.30
2018-12-16T04:34:01.394Z,18.60
2018-12-16T04:36:29.753Z,17.80
2018-12-16T04:38:57.402Z,17.97
2018-12-16T04:41:27.364Z,17.50
2018-12-16T04:43:54.952Z,18.80
2018-12-16T04:46:22.555Z,18.83
2018-12-16T04:48:50.144Z,17.77
2018-12-16T04:51:17.812Z,17.37
2018-12-16T04:53:46.159Z,16.97
2018-12-16T04:56:13.750Z,18.93
2018-12-16T04:58:42.137Z,26.43
2018-12-16T05:01:09.713Z,20.37
2018-12-16T05:03:37.347Z,18.67
2018-12-16T05:06:04.918Z,26.97
2018-12-16T05:08:33.267Z,27.80
2018-12-16T05:11:00.900Z,28.87
2018-12-16T05:13:28.481Z,29.30
2018-12-16T05:15:56.844Z,20.30
2018-12-16T05:18:24.818Z,19.37
2018-12-16T05:20:52.429Z,19.60
2018-12-16T05:23:20.806Z,18.37
2018-12-16T05:25:49.159Z,17.40
2018-12-16T05:28:17.142Z,27.15
2018-12-16T05:30:44.735Z,20.70
2018-12-16T05:33:12.311Z,19.43
2018-12-16T05:35:39.941Z,17.63
2018-12-16T05:38:08.280Z,17.73
2018-12-16T05:40:36.271Z,26.65
2018-12-16T05:43:03.865Z,27.83
2018-12-16T05:45:31.441Z,20.73
2018-12-16T05:47:59.054Z,19.33
2018-12-16T05:50:26.643Z,17.57
2018-12-16T05:52:54.600Z,27.03
2018-12-16T05:55:22.173Z,20.73
2018-12-16T05:57:49.753Z,18.40
2018-12-16T06:00:17.363Z,18.70
2018-12-16T06:02:44.979Z,18.57
2018-12-16T06:05:13.821Z,19.00
2018-12-16T06:07:41.404Z,19.07
2018-12-16T06:10:09.752Z,18.23
2018-12-16T06:12:37.353Z,19.17
2018-12-16T06:15:04.954Z,18.20
2018-12-16T06:17:32.885Z,18.83
2018-12-16T06:20:01.241Z,18.90
2018-12-16T06:22:28.829Z,18.43
2018-12-16T06:24:56.428Z,27.20
2018-12-16T06:27:24.006Z,20.13
2018-12-16T06:29:51.644Z,20.67
2018-12-16T06:32:19.223Z,19.97
2018-12-16T06:34:47.092Z,19.07
2018-12-16T06:37:14.703Z,21.23
2018-12-16T06:39:43.045Z,20.50
2018-12-16T06:42:11.509Z,20.97
2018-12-16T06:44:39.097Z,33.05
2018-12-16T06:47:07.048Z,22.50
2018-12-16T06:49:34.691Z,20.60
2018-12-16T06:52:02.995Z,19.40
2018-12-16T06:54:31.036Z,18.20
2018-12-16T06:56:58.453Z,20.00
2018-12-16T06:59:26.027Z,27.30
2018-12-16T07:01:53.650Z,21.50
2018-12-16T07:04:21.224Z,21.30
2018-12-16T07:06:48.836Z,20.37
2018-12-16T07:09:16.425Z,28.57
2018-12-16T07:11:44.057Z,23.97
2018-12-16T07:14:11.648Z,21.83
2018-12-16T07:16:40.651Z,20.73
2018-12-16T07:19:07.209Z,21.17
2018-12-16T07:21:34.822Z,20.40
2018-12-16T07:24:09.053Z,26.60
2018-12-16T07:26:30.768Z,22.10
2018-12-16T07:28:58.444Z,28.60
2018-12-16T07:31:25.978Z,23.23
2018-12-16T07:33:54.405Z,21.53
2018-12-16T07:36:22.703Z,21.77
2018-12-16T07:38:50.693Z,21.97
2018-12-16T07:41:18.262Z,21.93
2018-12-16T07:43:46.178Z,23.23
2018-12-16T07:46:14.279Z,22.33
2018-12-16T07:48:41.862Z,24.60
2018-12-16T07:51:10.236Z,21.53
2018-12-16T07:53:37.849Z,22.63
2018-12-16T07:56:06.158Z,21.57
2018-12-16T07:58:33.799Z,22.73
2018-12-16T08:01:01.384Z,21.77
2018-12-16T08:03:28.970Z,23.13
2018-12-16T08:05:56.867Z,22.97
2018-12-16T08:08:24.456Z,22.20
2018-12-16T08:10:52.052Z,22.83
2018-12-16T08:13:20.720Z,21.33
2018-12-16T08:15:48.290Z,21.47
2018-12-16T08:18:17.139Z,22.03
2018-12-16T08:20:44.541Z,23.87
2018-12-16T08:23:12.146Z,23.10
2018-12-16T08:25:39.741Z,21.97
2018-12-16T08:28:08.150Z,22.40
2018-12-16T08:30:35.755Z,22.37
2018-12-16T08:33:03.357Z,22.90
2018-12-16T08:35:31.521Z,22.57
2018-12-16T08:37:59.114Z,23.37
2018-12-16T08:40:27.453Z,22.77
2018-12-16T08:42:55.924Z,21.57
2018-12-16T08:45:24.234Z,22.00
2018-12-16T08:47:51.817Z,22.07
2018-12-16T08:50:19.769Z,21.83
2018-12-16T08:52:47.347Z,21.40
2018-12-16T08:55:14.919Z,20.97
2018-12-16T08:57:42.519Z,23.00
2018-12-16T09:00:10.120Z,33.33
2018-12-16T09:02:38.673Z,27.93
2018-12-16T09:05:06.257Z,29.10
2018-12-16T09:07:37.227Z,38.60
2018-12-16T09:10:02.389Z,38.53
2018-12-16T09:12:29.958Z,36.13
2018-12-16T09:14:57.535Z,25.93
2018-12-16T09:17:26.114Z,29.03
2018-12-16T09:19:53.683Z,31.80
2018-12-16T09:22:21.270Z,43.17
2018-12-16T09:24:48.943Z,35.40
2018-12-16T09:27:16.957Z,28.07
2018-12-16T09:29:45.019Z,26.33
2018-12-16T09:32:13.715Z,25.43
2018-12-16T09:34:41.300Z,22.87
2018-12-16T09:37:08.885Z,23.30
2018-12-16T09:39:37.283Z,20.83
2018-12-16T09:42:04.856Z,21.93
2018-12-16T09:44:33.545Z,21.97
2018-12-16T09:47:01.422Z,22.53
2018-12-16T09:49:29.012Z,23.47
2018-12-16T09:51:56.618Z,22.30
2018-12-16T09:54:24.307Z,31.63
2018-12-16T09:56:51.893Z,25.80
2018-12-16T09:59:20.071Z,24.83
2018-12-16T10:01:47.652Z,23.03
2018-12-16T10:04:15.237Z,20.97
2018-12-16T10:06:43.591Z,22.63
2018-12-16T10:09:11.537Z,21.80
2018-12-16T10:11:39.102Z,23.23
2018-12-16T10:14:07.209Z,20.97
2018-12-16T10:16:34.744Z,29.77
2018-12-16T10:19:02.659Z,23.63
2018-12-16T10:21:30.603Z,25.40
2018-12-16T10:23:58.977Z,22.33
2018-12-16T10:26:26.560Z,22.33
2018-12-16T10:28:55.322Z,22.43
2018-12-16T10:31:22.904Z,22.77
2018-12-16T10:33:50.489Z,23.97
2018-12-16T10:36:18.391Z,23.90
2018-12-16T10:38:45.970Z,23.43
2018-12-16T10:41:13.546Z,31.30
2018-12-16T10:43:41.491Z,25.20
2018-12-16T10:46:09.106Z,23.13
2018-12-16T10:48:36.655Z,22.43
2018-12-16T10:51:05.323Z,22.70
2018-12-16T10:53:36.617Z,23.70
2018-12-16T10:56:03.356Z,23.80
2018-12-16T10:58:31.040Z,23.67
2018-12-16T11:01:17.876Z,39.20
2018-12-16T11:03:45.757Z,25.60
2018-12-16T11:06:13.338Z,23.70
2018-12-16T11:08:40.919Z,23.90
2018-12-16T11:11:09.864Z,22.90
2018-12-16T11:13:37.458Z,23.10
2018-12-16T11:16:05.817Z,23.03
2018-12-16T11:18:33.748Z,23.70
2018-12-16T11:21:01.722Z,23.30
2018-12-16T11:23:30.437Z,21.40
2018-12-16T11:25:58.507Z,21.53
2018-12-16T11:28:26.119Z,21.93
2018-12-16T11:30:53.706Z,22.50
2018-12-16T11:33:21.801Z,22.30
2018-12-16T11:35:50.753Z,24.03
2018-12-16T11:38:18.345Z,31.50
2018-12-16T11:40:46.926Z,27.27
2018-12-16T11:43:14.505Z,23.03
2018-12-16T11:45:42.082Z,24.97
2018-12-16T11:48:10.486Z,37.90
2018-12-16T11:50:38.137Z,29.70
2018-12-16T11:53:05.741Z,30.50
2018-12-16T11:55:33.427Z,22.63
2018-12-16T11:58:01.008Z,22.57
2018-12-16T12:00:28.964Z,21.33
2018-12-16T12:02:56.545Z,20.47
2018-12-16T12:05:24.122Z,23.27
2018-12-16T12:07:51.753Z,22.70
2018-12-16T12:10:19.343Z,23.37
2018-12-16T12:12:46.962Z,30.50
2018-12-16T12:15:15.514Z,24.60
2018-12-16T12:17:43.085Z,22.67
2018-12-16T12:20:10.695Z,24.90
2018-12-16T12:22:38.617Z,22.13
2018-12-16T12:25:06.223Z,20.63
2018-12-16T12:27:33.817Z,21.63
2018-12-16T12:30:01.441Z,28.43
2018-12-16T12:32:29.033Z,32.93
2018-12-16T12:34:57.443Z,31.90
2018-12-16T12:37:25.038Z,26.00
2018-12-16T12:39:52.608Z,25.70
2018-12-16T12:42:20.580Z,23.87
2018-12-16T12:44:48.173Z,23.00
2018-12-16T12:47:15.751Z,30.33
2018-12-16T12:49:45.368Z,30.60
2018-12-16T12:52:13.484Z,23.87
2018-12-16T12:54:41.071Z,21.80
2018-12-16T12:57:08.959Z,28.23
2018-12-16T12:59:36.560Z,24.07
2018-12-16T13:02:04.152Z,20.73
2018-12-16T13:04:32.194Z,22.23
2018-12-16T13:06:59.874Z,21.23
2018-12-16T13:09:27.502Z,22.57
2018-12-16T13:11:57.043Z,21.67
2018-12-16T13:14:23.352Z,21.77
2018-12-16T13:16:50.972Z,22.70
2018-12-16T13:19:18.873Z,23.67
2018-12-16T13:21:46.464Z,21.13
2018-12-16T13:24:14.041Z,21.87
2018-12-16T13:26:41.671Z,21.47
2018-12-16T13:29:09.246Z,20.73
2018-12-16T13:31:36.820Z,18.50
2018-12-16T13:34:04.900Z,19.17
2018-12-16T13:36:32.653Z,24.23
2018-12-16T13:39:00.211Z,18.40
2018-12-16T13:41:28.210Z,16.83
2018-12-16T13:43:56.560Z,17.37
2018-12-16T13:46:24.155Z,19.10
2018-12-16T13:49:04.819Z,18.23
2018-12-16T13:51:36.264Z,17.67
2018-12-16T13:54:04.473Z,18.10
2018-12-16T13:56:32.571Z,20.07
2018-12-16T13:59:04.918Z,18.43
2018-12-16T14:01:32.975Z,17.70
2018-12-16T14:04:03.281Z,18.33
2018-12-16T14:06:28.949Z,17.37
2018-12-16T14:08:56.822Z,17.13
2018-12-16T14:11:24.376Z,17.43
2018-12-16T14:13:51.955Z,18.90
2018-12-16T14:16:19.970Z,15.67
2018-12-16T14:18:48.331Z,16.33
2018-12-16T14:21:15.910Z,15.53
2018-12-16T14:23:43.866Z,14.03
2018-12-16T14:26:11.461Z,23.12
2018-12-16T14:28:39.089Z,25.10
2018-12-16T14:31:07.190Z,19.00
2018-12-16T14:33:38.890Z,18.07
2018-12-16T14:36:05.317Z,17.33
2018-12-16T14:38:33.157Z,20.83
2018-12-16T14:41:00.808Z,24.50
2018-12-16T14:43:28.353Z,20.10
2018-12-16T14:45:56.030Z,22.33
2018-12-16T14:48:23.578Z,20.40
2018-12-16T14:50:51.254Z,19.40
2018-12-16T14:53:18.881Z,19.90
2018-12-16T14:55:46.459Z,18.03
2018-12-16T14:58:14.051Z,32.93
2018-12-16T15:00:43.208Z,25.77
2018-12-16T15:03:10.755Z,19.70
2018-12-16T15:05:38.333Z,26.83
2018-12-16T15:08:09.486Z,24.90
2018-12-16T15:10:37.423Z,22.73
2018-12-16T15:13:09.595Z,20.90
2018-12-16T15:15:37.921Z,22.20
2018-12-16T15:18:05.585Z,25.25
2018-12-16T15:20:33.486Z,21.40
2018-12-16T15:23:01.411Z,20.27
2018-12-16T15:25:29.606Z,19.33
2018-12-16T15:27:57.965Z,20.47
2018-12-16T15:30:26.116Z,19.70
2018-12-16T15:32:53.889Z,29.10
2018-12-16T15:35:21.504Z,24.97
2018-12-16T15:37:49.452Z,23.17
2018-12-16T15:40:17.046Z,24.50
2018-12-16T15:42:44.686Z,26.00
2018-12-16T15:45:14.136Z,24.40
2018-12-16T15:47:40.207Z,23.67
2018-12-16T15:50:07.787Z,23.53
2018-12-16T15:52:36.267Z,22.73
2018-12-16T15:55:03.906Z,23.47
2018-12-16T15:57:31.759Z,23.17
2018-12-16T15:59:59.382Z,26.53
2018-12-16T16:02:26.993Z,35.00
2018-12-16T16:04:55.401Z,27.23
2018-12-16T16:07:22.977Z,35.60
2018-12-16T16:09:50.608Z,27.70
2018-12-16T16:12:18.266Z,27.33
2018-12-16T16:14:45.863Z,25.60
2018-12-16T16:17:13.505Z,23.73
2018-12-16T16:19:41.865Z,23.00
2018-12-16T16:22:10.804Z,22.87
2018-12-16T16:24:38.413Z,24.23
2018-12-16T16:27:06.044Z,28.10
2018-12-16T16:29:33.639Z,28.17
2018-12-16T16:32:01.224Z,28.57
2018-12-16T16:34:28.886Z,24.70
2018-12-16T16:36:56.920Z,25.07
2018-12-16T16:39:24.508Z,29.55
2018-12-16T16:41:52.494Z,25.77
2018-12-16T16:44:20.848Z,22.80
2018-12-16T16:46:49.583Z,22.73
2018-12-16T16:49:17.521Z,30.65
2018-12-16T16:51:45.136Z,23.77
2018-12-16T16:54:12.726Z,22.27
2018-12-16T16:56:40.706Z,22.33
2018-12-16T16:59:08.322Z,19.43
2018-12-16T17:01:35.909Z,20.87
2018-12-16T17:04:04.119Z,19.37
2018-12-16T17:06:31.713Z,18.47
2018-12-16T17:08:59.316Z,20.13
2018-12-16T17:11:28.482Z,23.40
2018-12-16T17:13:58.483Z,19.60
2018-12-16T17:16:24.804Z,17.60
2018-12-16T17:18:52.387Z,17.27
2018-12-16T17:21:19.993Z,17.27
2018-12-16T17:23:47.631Z,17.40
2018-12-16T17:26:15.230Z,24.57
2018-12-16T17:28:42.816Z,19.87
2018-12-16T17:31:11.518Z,20.80
2018-12-16T17:33:39.124Z,22.33
2018-12-16T17:36:06.701Z,22.77
2018-12-16T17:38:34.662Z,21.97
2018-12-16T17:41:02.347Z,21.57
2018-12-16T17:43:29.896Z,32.20
2018-12-16T17:45:59.272Z,32.50
2018-12-16T17:48:26.847Z,45.60
2018-12-16T17:50:54.435Z,44.33
2018-12-16T17:53:22.060Z,38.53
2018-12-16T17:55:49.640Z,25.90
2018-12-16T17:58:17.226Z,24.73
2018-12-16T18:00:44.839Z,28.67
2018-12-16T18:03:12.407Z,21.17
2018-12-16T18:05:39.989Z,29.13
2018-12-16T18:08:07.822Z,22.00
2018-12-16T18:10:35.401Z,27.62
2018-12-16T18:13:02.979Z,23.33
2018-12-16T18:15:30.662Z,22.03
2018-12-16T18:17:59.080Z,28.73
2018-12-16T18:20:26.739Z,26.70
2018-12-16T18:22:54.442Z,27.27
2018-12-16T18:25:22.014Z,21.97
2018-12-16T18:27:49.598Z,29.13
2018-12-16T18:30:18.641Z,30.30
2018-12-16T18:32:46.227Z,21.77
2018-12-16T18:35:13.906Z,19.37
2018-12-16T18:37:42.157Z,24.23
2018-12-16T18:40:09.873Z,18.17
2018-12-16T18:42:37.478Z,20.07
2018-12-16T18:45:05.379Z,19.60
2018-12-16T18:47:32.971Z,18.77
2018-12-16T18:50:00.564Z,18.60
2018-12-16T18:52:28.190Z,21.70
2018-12-16T18:54:55.796Z,19.40
2018-12-16T18:57:23.375Z,18.90
2018-12-16T18:59:50.985Z,19.23
2018-12-16T19:02:18.563Z,18.03
2018-12-16T19:04:46.200Z,16.90
2018-12-16T19:07:13.785Z,19.83
2018-12-16T19:09:41.372Z,21.03
2018-12-16T19:12:09.900Z,19.90
2018-12-16T19:14:37.436Z,19.83
2018-12-16T19:17:05.052Z,18.57
2018-12-16T19:19:34.567Z,17.83
2018-12-16T19:22:02.143Z,19.73
2018-12-16T19:24:29.731Z,15.90
2018-12-16T19:26:58.334Z,17.87
2018-12-16T19:29:25.641Z,23.50
2018-12-16T19:31:53.239Z,24.33
2018-12-16T19:34:21.179Z,17.03
2018-12-16T19:36:48.758Z,17.30
2018-12-16T19:39:16.330Z,17.70
2018-12-16T19:41:43.938Z,17.43
2018-12-16T19:44:11.515Z,18.33
2018-12-16T19:46:39.424Z,17.23
2018-12-16T19:49:07.311Z,17.23
2018-12-16T19:51:35.655Z,15.53
2018-12-16T19:54:03.278Z,17.67
2018-12-16T19:56:31.776Z,23.90
2018-12-16T19:58:59.404Z,24.93
2018-12-16T20:01:26.993Z,20.47
2018-12-16T20:04:00.421Z,21.57
2018-12-16T20:06:45.831Z,20.37
2018-12-16T20:09:14.494Z,19.90
2018-12-16T20:11:42.067Z,21.83
2018-12-16T20:14:09.646Z,20.73
2018-12-16T20:16:37.248Z,20.53
2018-12-16T20:19:04.875Z,20.70
2018-12-16T20:21:32.820Z,19.47
2018-12-16T20:24:00.395Z,25.48
2018-12-16T20:26:27.975Z,27.20
2018-12-16T20:28:55.586Z,20.03
2018-12-16T20:31:23.173Z,19.47
2018-12-16T20:33:50.822Z,24.30
2018-12-16T20:36:18.410Z,18.60
2018-12-16T20:38:46.754Z,23.13
2018-12-16T20:41:14.357Z,16.40
2018-12-16T20:43:42.725Z,23.13
2018-12-16T20:46:12.006Z,15.13
2018-12-16T20:48:39.577Z,13.50
2018-12-16T20:51:07.170Z,19.80
2018-12-16T20:53:34.778Z,22.08
2018-12-16T20:56:02.356Z,17.70
2018-12-16T20:58:30.521Z,17.17
2018-12-16T21:00:58.097Z,13.43
2018-12-16T21:03:25.679Z,13.63
2018-12-16T21:05:54.055Z,13.37
2018-12-16T21:08:22.430Z,13.63
2018-12-16T21:10:50.285Z,14.10
2018-12-16T21:13:36.154Z,13.60
2018-12-16T21:16:24.858Z,18.98
2018-12-16T21:18:53.297Z,18.00
2018-12-16T21:21:20.872Z,14.87
2018-12-16T21:23:49.138Z,15.20
2018-12-16T21:26:16.719Z,12.03
2018-12-16T21:28:44.798Z,12.40
2018-12-16T21:31:12.631Z,14.77
2018-12-16T21:33:40.226Z,14.40
2018-12-16T21:36:07.893Z,16.73
2018-12-16T21:38:35.533Z,12.33
2018-12-16T21:41:03.140Z,21.07
2018-12-16T21:43:30.731Z,15.00
2018-12-16T21:45:58.724Z,12.53
2018-12-16T21:48:26.221Z,12.70
2018-12-16T21:50:53.813Z,13.87
2018-12-16T21:53:21.437Z,13.77
2018-12-16T21:55:49.056Z,11.67
2018-12-16T21:58:16.734Z,12.43
2018-12-16T22:00:44.376Z,13.63
2018-12-16T22:03:12.001Z,12.70
2018-12-16T22:05:40.661Z,13.27
2018-12-16T22:08:08.462Z,12.60
2018-12-16T22:10:36.853Z,11.97
2018-12-16T22:13:04.285Z,13.83
2018-12-16T22:15:32.403Z,13.90
2018-12-16T22:18:08.062Z,12.90
2018-12-16T22:20:35.637Z,12.07
2018-12-16T22:23:05.170Z,11.67
2018-12-16T22:25:31.687Z,12.80
2018-12-16T22:27:59.279Z,11.90
2018-12-16T22:30:27.024Z,12.30
2018-12-16T22:32:54.581Z,11.93
2018-12-16T22:35:22.216Z,13.43
2018-12-16T22:37:49.802Z,19.00
2018-12-16T22:40:17.646Z,18.13
2018-12-16T22:42:45.291Z,14.50
2018-12-16T22:45:13.606Z,12.93
2018-12-16T22:47:41.239Z,13.20
2018-12-16T22:50:08.842Z,12.30
2018-12-16T22:52:36.448Z,16.03
2018-12-16T22:55:04.050Z,16.20
2018-12-16T22:57:31.643Z,13.90
2018-12-16T22:59:59.269Z,18.63
2018-12-16T23:02:26.869Z,20.30
2018-12-16T23:04:54.488Z,13.87
2018-12-16T23:07:22.112Z,14.83
2018-12-16T23:09:49.685Z,18.57
2018-12-16T23:12:17.335Z,14.07
2018-12-16T23:14:44.911Z,14.17
2018-12-16T23:17:12.490Z,13.17
2018-12-16T23:19:40.098Z,12.73
2018-12-16T23:22:07.674Z,13.17
2018-12-16T23:24:36.426Z,13.00
2018-12-16T23:27:04.376Z,13.77
2018-12-16T23:29:31.986Z,18.55
2018-12-16T23:32:00.368Z,16.37
2018-12-16T23:34:28.735Z,14.20
2018-12-16T23:36:56.683Z,14.00
2018-12-16T23:39:24.269Z,16.03
2018-12-16T23:41:52.605Z,15.00
2018-12-16T23:44:20.215Z,13.60
2018-12-16T23:46:48.569Z,14.53
2018-12-16T23:49:16.208Z,15.73
2018-12-16T23:51:43.797Z,15.10
2018-12-16T23:54:11.384Z,14.07
2018-12-16T23:56:39.022Z,15.00
2018-12-16T23:59:06.604Z,15.20
